Time;durP1;ratioP1;P1;durP2;ratioP2;P2;SDS_P1;SDS_P2;PMS_P1;PMS_P2;Temp;Humidity;BMP_temperature;BMP_pressure;BME280_temperature;BME280_humidity;BME280_pressure;Samples;Min_cycle;Max_cycle;Signal;HPM_P1;HPM_P2
2022/06/30 00:00:58;;;;;;;12.38;11.20;;;;;;;;;;5034550;28;20042;-80
2022/06/30 00:03:24;;;;;;;11.90;10.80;;;;;;;;;;5035405;28;20255;-80
2022/06/30 00:05:50;;;;;;;12.30;11.07;;;;;;;;;;5035829;28;20095;-81
2022/06/30 00:08:16;;;;;;;12.43;11.23;;;;;;;;;;5042500;28;20045;-81
2022/06/30 00:10:42;;;;;;;12.13;10.98;;;;;;;;;;5027489;28;20053;-80
2022/06/30 00:13:08;;;;;;;13.88;10.32;;;;;;;;;;5031446;28;20060;-80
2022/06/30 00:15:37;;;;;;;10.90;9.88;;;;;;;;;;5017591;28;20086;-80
2022/06/30 00:18:04;;;;;;;11.25;10.20;;;;;;;;;;5037375;28;20053;-80
2022/06/30 00:20:30;;;;;;;11.73;10.52;;;;;;;;;;5038705;28;20107;-79
2022/06/30 00:22:56;;;;;;;10.60;9.60;;;;;;;;;;5028627;28;20046;-81
2022/06/30 00:25:22;;;;;;;11.15;10.05;;;;;;;;;;5032542;28;20073;-80
2022/06/30 00:27:48;;;;;;;11.50;10.40;;;;;;;;;;5028033;28;20049;-80
2022/06/30 00:30:14;;;;;;;11.55;10.35;;;;;;;;;;5019659;28;20461;-80
2022/06/30 00:32:40;;;;;;;12.13;10.98;;;;;;;;;;5017633;28;20409;-81
2022/06/30 00:35:06;;;;;;;11.55;10.45;;;;;;;;;;5015482;28;20132;-80
2022/06/30 00:37:32;;;;;;;11.90;10.77;;;;;;;;;;5033265;28;20040;-81
2022/06/30 00:39:58;;;;;;;12.55;11.35;;;;;;;;;;5049903;28;20081;-81
2022/06/30 00:42:24;;;;;;;12.25;11.05;;;;;;;;;;5046885;28;20133;-80
2022/06/30 00:44:50;;;;;;;12.63;11.32;;;;;;;;;;5027254;23;20069;-75
2022/06/30 00:47:16;;;;;;;12.07;10.98;;;;;;;;;;5001843;28;20050;-76
2022/06/30 00:49:42;;;;;;;12.93;11.70;;;;;;;;;;5000709;28;20023;-76
2022/06/30 00:52:10;;;;;;;12.38;11.15;;;;;;;;;;4999495;28;20050;-76
2022/06/30 00:54:38;;;;;;;13.25;11.95;;;;;;;;;;4999734;28;20031;-76
2022/06/30 00:57:05;;;;;;;13.07;11.63;;;;;;;;;;4999896;28;20042;-76
2022/06/30 00:59:33;;;;;;;13.65;12.45;;;;;;;;;;4999613;28;20031;-75
2022/06/30 01:02:00;;;;;;;14.07;12.68;;;;;;;;;;5000158;28;20082;-75
2022/06/30 01:04:26;;;;;;;12.85;11.60;;;;;;;;;;4999907;28;20023;-76
2022/06/30 01:06:54;;;;;;;13.25;12.00;;;;;;;;;;4999682;28;20095;-76
2022/06/30 01:14:51;;;;;;;13.73;12.38;;;;;;;;;;4999912;28;20030;-76
2022/06/30 01:17:17;;;;;;;15.45;13.20;;;;;;;;;;4998419;28;20123;-76
2022/06/30 01:19:53;;;;;;;12.98;11.60;;;;;;;;;;4999486;28;20033;-76
2022/06/30 01:22:19;;;;;;;12.80;11.60;;;;;;;;;;4999701;28;20037;-76
2022/06/30 01:24:45;;;;;;;14.40;12.93;;;;;;;;;;4999128;28;20023;-76
2022/06/30 01:27:12;;;;;;;14.10;12.75;;;;;;;;;;5015131;28;20062;-76
2022/06/30 01:29:38;;;;;;;14.23;12.80;;;;;;;;;;4999486;28;20039;-75
2022/06/30 01:32:04;;;;;;;13.68;12.27;;;;;;;;;;5014719;28;20046;-76
2022/06/30 01:34:30;;;;;;;13.98;12.48;;;;;;;;;;5015165;28;20054;-76
2022/06/30 01:36:56;;;;;;;13.27;11.98;;;;;;;;;;5014991;28;20087;-76
2022/06/30 01:39:22;;;;;;;12.20;11.10;;;;;;;;;;4998950;28;20023;-76
2022/06/30 01:41:48;;;;;;;12.02;10.88;;;;;;;;;;4999394;28;20035;-76
2022/06/30 01:44:14;;;;;;;11.07;9.95;;;;;;;;;;5014572;28;20089;-75
2022/06/30 01:46:47;;;;;;;11.27;10.18;;;;;;;;;;4998492;28;20034;-76
2022/06/30 01:49:14;;;;;;;10.77;9.68;;;;;;;;;;4999203;28;20074;-75
2022/06/30 01:51:40;;;;;;;11.15;9.68;;;;;;;;;;4999311;28;20050;-75
2022/06/30 01:54:08;;;;;;;10.27;9.23;;;;;;;;;;4998691;28;20031;-75
2022/06/30 01:56:34;;;;;;;10.02;9.02;;;;;;;;;;4998464;28;20055;-75
2022/06/30 01:59:00;;;;;;;10.35;9.45;;;;;;;;;;4999228;28;20085;-75
2022/06/30 02:01:26;;;;;;;10.90;9.00;;;;;;;;;;4998601;28;20082;-75
2022/06/30 02:03:52;;;;;;;10.27;9.32;;;;;;;;;;4999210;28;20027;-75
2022/06/30 02:06:18;;;;;;;9.82;8.93;;;;;;;;;;4998487;28;20090;-75
2022/06/30 02:08:44;;;;;;;9.18;8.25;;;;;;;;;;4999053;28;20090;-75
2022/06/30 02:11:10;;;;;;;10.07;9.07;;;;;;;;;;4998460;28;20054;-76
2022/06/30 02:13:36;;;;;;;11.23;8.50;;;;;;;;;;4998544;28;20034;-75
2022/06/30 02:16:02;;;;;;;9.73;8.73;;;;;;;;;;4997626;28;20039;-75
2022/06/30 02:18:28;;;;;;;9.23;8.20;;;;;;;;;;4998463;28;20058;-76
2022/06/30 02:20:55;;;;;;;9.77;8.88;;;;;;;;;;4998451;28;20034;-76
2022/06/30 02:23:21;;;;;;;9.98;8.98;;;;;;;;;;4998093;28;20026;-76
2022/06/30 02:25:47;;;;;;;9.55;8.63;;;;;;;;;;4998071;28;20066;-76
2022/06/30 02:28:13;;;;;;;10.90;8.07;;;;;;;;;;4998168;28;20062;-75
2022/06/30 02:30:39;;;;;;;9.07;8.18;;;;;;;;;;4998281;28;20027;-76
2022/06/30 02:33:05;;;;;;;9.50;8.60;;;;;;;;;;5014589;28;20062;-76
2022/06/30 02:35:31;;;;;;;10.75;9.23;;;;;;;;;;4998373;28;20030;-76
2022/06/30 02:37:57;;;;;;;9.73;8.35;;;;;;;;;;4998911;28;20066;-76
2022/06/30 02:40:24;;;;;;;9.25;8.32;;;;;;;;;;4998198;28;20046;-76
2022/06/30 02:42:50;;;;;;;9.80;8.80;;;;;;;;;;4997889;28;20026;-76
2022/06/30 02:45:16;;;;;;;10.18;8.32;;;;;;;;;;4998214;28;20055;-75
2022/06/30 02:47:43;;;;;;;9.18;8.27;;;;;;;;;;4998899;28;20050;-75
2022/06/30 02:50:10;;;;;;;10.10;8.85;;;;;;;;;;4998255;28;20066;-76
2022/06/30 02:52:37;;;;;;;9.45;8.52;;;;;;;;;;4998678;28;20057;-75
2022/06/30 02:55:04;;;;;;;10.80;9.27;;;;;;;;;;5014601;28;20033;-75
2022/06/30 02:57:30;;;;;;;9.80;8.90;;;;;;;;;;5001874;28;20031;-76
2022/06/30 02:59:56;;;;;;;9.82;8.93;;;;;;;;;;5002351;28;20031;-76
2022/06/30 03:02:22;;;;;;;9.68;8.70;;;;;;;;;;5002195;28;20030;-75
2022/06/30 03:04:49;;;;;;;9.68;8.68;;;;;;;;;;5002216;28;20042;-75
2022/06/30 03:07:15;;;;;;;10.73;8.82;;;;;;;;;;5001459;28;20083;-76
2022/06/30 03:09:42;;;;;;;9.63;8.73;;;;;;;;;;4981607;28;20050;-76
2022/06/30 03:12:08;;;;;;;10.95;9.05;;;;;;;;;;4985400;28;20058;-76
2022/06/30 03:14:34;;;;;;;9.15;8.05;;;;;;;;;;5001557;28;20041;-75
2022/06/30 03:17:00;;;;;;;9.02;8.05;;;;;;;;;;5001828;28;20058;-76
2022/06/30 03:19:26;;;;;;;9.32;7.85;;;;;;;;;;5002021;28;20031;-76
2022/06/30 03:21:55;;;;;;;9.45;8.02;;;;;;;;;;5001476;28;20054;-75
2022/06/30 03:24:21;;;;;;;8.88;7.97;;;;;;;;;;5000774;28;20086;-76
2022/06/30 03:26:48;;;;;;;9.65;8.65;;;;;;;;;;5001359;28;21329;-76
2022/06/30 03:29:14;;;;;;;9.40;8.38;;;;;;;;;;5001855;28;20042;-76
2022/06/30 03:31:40;;;;;;;9.35;8.40;;;;;;;;;;5001521;28;20038;-76
2022/06/30 03:34:06;;;;;;;9.10;8.20;;;;;;;;;;5001784;28;20042;-76
2022/06/30 03:36:33;;;;;;;9.60;8.60;;;;;;;;;;5001112;28;20039;-75
2022/06/30 03:38:59;;;;;;;9.55;8.60;;;;;;;;;;5001087;28;20031;-75
2022/06/30 03:41:25;;;;;;;9.43;8.30;;;;;;;;;;5001122;28;20090;-75
2022/06/30 03:43:51;;;;;;;10.63;8.27;;;;;;;;;;5001217;28;20027;-75
2022/06/30 03:46:17;;;;;;;9.93;8.45;;;;;;;;;;5001147;28;20065;-75
2022/06/30 03:48:43;;;;;;;11.07;9.45;;;;;;;;;;5000900;28;20078;-75
2022/06/30 03:51:11;;;;;;;10.18;8.85;;;;;;;;;;5001487;28;20026;-75
2022/06/30 03:53:37;;;;;;;10.98;8.60;;;;;;;;;;5000686;28;20027;-76
2022/06/30 03:56:04;;;;;;;9.20;8.27;;;;;;;;;;5000826;28;20102;-75
2022/06/30 03:58:30;;;;;;;10.93;8.63;;;;;;;;;;5000889;28;20035;-77
2022/06/30 04:00:56;;;;;;;10.02;8.18;;;;;;;;;;5001198;28;20054;-77
2022/06/30 04:03:22;;;;;;;9.75;8.32;;;;;;;;;;5001254;28;20055;-77
2022/06/30 04:05:48;;;;;;;9.50;8.57;;;;;;;;;;5000666;28;20050;-77
2022/06/30 04:08:14;;;;;;;9.20;7.93;;;;;;;;;;5000505;28;20146;-77
2022/06/30 04:10:40;;;;;;;9.07;8.18;;;;;;;;;;5000553;28;20031;-77
2022/06/30 04:13:06;;;;;;;8.77;7.80;;;;;;;;;;5000186;28;20038;-77
2022/06/30 04:15:35;;;;;;;9.98;8.98;;;;;;;;;;5001052;28;20035;-77
2022/06/30 04:18:01;;;;;;;8.88;8.07;;;;;;;;;;5000916;28;20043;-77
2022/06/30 04:20:27;;;;;;;11.40;8.20;;;;;;;;;;5000864;28;20026;-77
2022/06/30 04:22:53;;;;;;;9.82;7.88;;;;;;;;;;4999494;28;20047;-77
2022/06/30 04:25:20;;;;;;;11.43;8.07;;;;;;;;;;5000643;28;20046;-76
2022/06/30 04:27:47;;;;;;;8.13;7.35;;;;;;;;;;5000735;28;20038;-75
2022/06/30 04:30:14;;;;;;;9.07;7.78;;;;;;;;;;5000793;28;20033;-77
2022/06/30 04:32:40;;;;;;;8.63;7.75;;;;;;;;;;5000844;28;20055;-77
2022/06/30 04:35:07;;;;;;;8.82;7.60;;;;;;;;;;5000678;28;20090;-77
2022/06/30 04:37:33;;;;;;;8.45;7.57;;;;;;;;;;4999291;28;20030;-75
2022/06/30 04:42:44;;;;;;;9.25;7.38;;;;;;;;;;4990285;28;20027;-77
2022/06/30 04:45:11;;;;;;;9.13;8.20;;;;;;;;;;5000110;28;20038;-77
2022/06/30 04:47:37;;;;;;;9.80;7.43;;;;;;;;;;5000319;28;20041;-77
2022/06/30 04:50:05;;;;;;;8.50;7.57;;;;;;;;;;5000463;28;20321;-76
2022/06/30 04:52:31;;;;;;;7.75;6.65;;;;;;;;;;4999792;28;20025;-77
2022/06/30 04:54:57;;;;;;;8.68;7.22;;;;;;;;;;4999371;28;20050;-77
2022/06/30 04:57:23;;;;;;;8.20;7.40;;;;;;;;;;5000057;28;20039;-77
2022/06/30 04:59:49;;;;;;;7.88;7.18;;;;;;;;;;5000142;28;20085;-77
2022/06/30 05:02:15;;;;;;;8.15;6.93;;;;;;;;;;4983499;28;20058;-77
2022/06/30 05:04:43;;;;;;;9.55;7.07;;;;;;;;;;4999980;28;20030;-76
2022/06/30 05:07:09;;;;;;;8.30;7.50;;;;;;;;;;4999033;28;20078;-77
2022/06/30 05:09:35;;;;;;;10.38;7.85;;;;;;;;;;4999884;28;20044;-77
2022/06/30 05:12:01;;;;;;;10.18;7.40;;;;;;;;;;4999878;28;20030;-77
2022/06/30 05:14:27;;;;;;;9.63;7.80;;;;;;;;;;4999734;28;20034;-77
2022/06/30 05:16:53;;;;;;;8.40;7.53;;;;;;;;;;4999040;28;20051;-76
2022/06/30 05:19:19;;;;;;;9.00;7.20;;;;;;;;;;4997084;28;20047;-78
2022/06/30 05:21:45;;;;;;;8.00;7.25;;;;;;;;;;4981542;28;20037;-76
2022/06/30 05:26:56;;;;;;;8.27;7.47;;;;;;;;;;4999294;28;20149;-77
2022/06/30 05:29:22;;;;;;;8.55;7.65;;;;;;;;;;4999614;28;20034;-77
2022/06/30 05:31:52;;;;;;;8.75;7.85;;;;;;;;;;4998457;28;20023;-77
2022/06/30 05:34:18;;;;;;;8.90;7.95;;;;;;;;;;4999565;28;20026;-76
2022/06/30 05:36:44;;;;;;;7.80;6.88;;;;;;;;;;4998525;28;20046;-77
2022/06/30 05:39:11;;;;;;;9.05;7.22;;;;;;;;;;4999237;28;20042;-77
2022/06/30 05:41:37;;;;;;;8.05;7.25;;;;;;;;;;4998228;28;20038;-77
2022/06/30 05:44:03;;;;;;;8.75;7.40;;;;;;;;;;4999424;28;20058;-77
2022/06/30 05:46:29;;;;;;;9.20;7.18;;;;;;;;;;4982593;28;20037;-77
2022/06/30 05:48:58;;;;;;;8.00;7.30;;;;;;;;;;4998893;28;20054;-76
2022/06/30 05:51:24;;;;;;;7.18;6.47;;;;;;;;;;4998666;28;20027;-76
2022/06/30 05:53:50;;;;;;;10.70;7.25;;;;;;;;;;4996584;28;20116;-78
2022/06/30 05:56:17;;;;;;;11.38;7.32;;;;;;;;;;4974453;28;20047;-77
2022/06/30 05:58:43;;;;;;;10.55;7.85;;;;;;;;;;4997260;28;20039;-80
2022/06/30 06:01:08;;;;;;;8.75;7.57;;;;;;;;;;4996723;28;20033;-78
2022/06/30 06:03:34;;;;;;;10.75;7.65;;;;;;;;;;4999128;28;20110;-77
2022/06/30 06:06:00;;;;;;;7.88;7.07;;;;;;;;;;4997449;28;20019;-78
2022/06/30 06:08:27;;;;;;;9.80;7.28;;;;;;;;;;4998121;28;20045;-77
2022/06/30 06:10:53;;;;;;;7.75;7.00;;;;;;;;;;4998816;28;20045;-76
2022/06/30 06:13:19;;;;;;;7.75;6.95;;;;;;;;;;4999062;28;20066;-76
2022/06/30 06:15:45;;;;;;;8.30;7.30;;;;;;;;;;4998428;28;20050;-76
2022/06/30 06:18:11;;;;;;;10.20;7.13;;;;;;;;;;4998445;28;20055;-76
2022/06/30 06:20:37;;;;;;;10.10;7.30;;;;;;;;;;4997056;28;20099;-77
2022/06/30 06:23:03;;;;;;;12.20;7.32;;;;;;;;;;4998563;28;20046;-77
2022/06/30 06:25:29;;;;;;;8.27;7.25;;;;;;;;;;4998917;28;20029;-77
2022/06/30 06:30:43;;;;;;;8.55;7.68;;;;;;;;;;5002394;28;20053;-77
2022/06/30 06:33:10;;;;;;;8.93;7.82;;;;;;;;;;5002428;28;20103;-77
2022/06/30 06:35:36;;;;;;;8.55;7.72;;;;;;;;;;5001244;28;20031;-77
2022/06/30 06:38:02;;;;;;;9.43;8.18;;;;;;;;;;5002168;28;20035;-77
2022/06/30 06:40:29;;;;;;;8.70;7.60;;;;;;;;;;5002572;28;20090;-76
2022/06/30 06:42:55;;;;;;;8.70;7.80;;;;;;;;;;4985980;28;20102;-78
2022/06/30 06:45:21;;;;;;;9.45;7.70;;;;;;;;;;5002311;28;20046;-76
2022/06/30 06:47:47;;;;;;;9.35;8.40;;;;;;;;;;5002411;28;20038;-76
2022/06/30 06:50:13;;;;;;;10.50;8.30;;;;;;;;;;4997559;28;20033;-77
2022/06/30 06:52:39;;;;;;;9.43;8.45;;;;;;;;;;5002186;28;20059;-79
2022/06/30 06:55:06;;;;;;;8.93;8.07;;;;;;;;;;5002000;28;20023;-77
2022/06/30 06:57:43;;;;;;;8.80;8.00;;;;;;;;;;5002258;28;20054;-77
2022/06/30 07:00:09;;;;;;;9.15;7.93;;;;;;;;;;5001723;28;20046;-77
2022/06/30 07:02:36;;;;;;;9.00;8.05;;;;;;;;;;5001856;28;20038;-77
2022/06/30 07:05:02;;;;;;;10.13;8.30;;;;;;;;;;5002464;28;20038;-78
2022/06/30 07:07:28;;;;;;;10.30;8.07;;;;;;;;;;5001342;28;20058;-77
2022/06/30 07:09:54;;;;;;;12.02;8.63;;;;;;;;;;5000940;28;20042;-76
2022/06/30 07:12:20;;;;;;;9.20;8.30;;;;;;;;;;5001602;28;20043;-77
2022/06/30 07:14:46;;;;;;;8.70;7.80;;;;;;;;;;5001971;28;20058;-80
2022/06/30 07:17:12;;;;;;;9.88;8.18;;;;;;;;;;5001339;28;20041;-80
2022/06/30 07:19:38;;;;;;;8.98;8.07;;;;;;;;;;5001433;28;20042;-79
2022/06/30 07:22:04;;;;;;;8.85;7.95;;;;;;;;;;5002117;28;20027;-81
2022/06/30 07:24:32;;;;;;;9.80;8.48;;;;;;;;;;4980953;28;20066;-78
2022/06/30 07:26:59;;;;;;;9.25;8.45;;;;;;;;;;4996937;28;20057;-76
2022/06/30 07:29:26;;;;;;;9.07;8.15;;;;;;;;;;4986387;28;20107;-76
2022/06/30 07:31:53;;;;;;;8.95;8.15;;;;;;;;;;4984547;28;20043;-76
2022/06/30 07:34:19;;;;;;;9.20;8.23;;;;;;;;;;4967350;28;20537;-76
2022/06/30 07:36:45;;;;;;;9.60;8.57;;;;;;;;;;4983760;28;20047;-76
2022/06/30 07:39:14;;;;;;;9.23;8.23;;;;;;;;;;4984159;28;20499;-91
2022/06/30 07:41:43;;;;;;;9.48;8.55;;;;;;;;;;4991709;28;20091;-76
2022/06/30 07:44:09;;;;;;;10.10;8.70;;;;;;;;;;4992186;28;20033;-77
2022/06/30 07:46:36;;;;;;;9.80;8.82;;;;;;;;;;4984693;28;20059;-76
2022/06/30 07:49:02;;;;;;;11.38;8.90;;;;;;;;;;4986639;28;20051;-76
2022/06/30 07:51:28;;;;;;;9.80;8.90;;;;;;;;;;4988617;28;20395;-76
2022/06/30 07:53:54;;;;;;;9.75;8.77;;;;;;;;;;4982735;28;20039;-76
2022/06/30 07:56:20;;;;;;;10.18;9.27;;;;;;;;;;4999138;28;20035;-77
2022/06/30 07:58:47;;;;;;;10.98;9.80;;;;;;;;;;4997906;28;20127;-74
2022/06/30 08:01:13;;;;;;;10.80;9.68;;;;;;;;;;4996608;28;20040;-79
2022/06/30 08:03:39;;;;;;;10.70;8.38;;;;;;;;;;5015846;28;20023;-76
2022/06/30 08:06:05;;;;;;;11.05;10.05;;;;;;;;;;5000600;28;20054;-77
2022/06/30 08:08:32;;;;;;;10.75;9.75;;;;;;;;;;5000211;28;20036;-76
2022/06/30 08:10:58;;;;;;;11.07;10.07;;;;;;;;;;5000351;28;20038;-77
2022/06/30 08:13:24;;;;;;;10.65;9.48;;;;;;;;;;5001179;28;20023;-75
2022/06/30 08:15:51;;;;;;;10.93;9.63;;;;;;;;;;5000523;28;20034;-75
2022/06/30 08:18:17;;;;;;;9.85;8.85;;;;;;;;;;5000773;28;20045;-76
2022/06/30 08:20:43;;;;;;;10.20;9.20;;;;;;;;;;4999962;28;20030;-80
2022/06/30 08:23:09;;;;;;;11.30;10.20;;;;;;;;;;4999608;28;20089;-76
2022/06/30 08:25:35;;;;;;;10.90;9.90;;;;;;;;;;5000136;28;20035;-76
2022/06/30 08:28:05;;;;;;;11.40;9.93;;;;;;;;;;4997565;28;20050;-79
2022/06/30 08:30:31;;;;;;;10.32;9.20;;;;;;;;;;4998291;28;20038;-78
2022/06/30 08:32:57;;;;;;;10.85;9.75;;;;;;;;;;5000577;28;20026;-75
2022/06/30 08:35:23;;;;;;;14.82;9.93;;;;;;;;;;5000191;28;20027;-75
2022/06/30 08:37:49;;;;;;;11.35;9.48;;;;;;;;;;4999482;28;20046;-77
2022/06/30 08:43:01;;;;;;;10.73;9.67;;;;;;;;;;5021761;28;20034;-77
2022/06/30 08:45:29;;;;;;;11.70;10.57;;;;;;;;;;5034968;28;20046;-75
2022/06/30 08:47:55;;;;;;;12.43;11.23;;;;;;;;;;5035239;28;20076;-75
2022/06/30 08:50:22;;;;;;;10.60;9.65;;;;;;;;;;5038582;28;20033;-80
2022/06/30 08:52:51;;;;;;;11.38;10.27;;;;;;;;;;5034963;28;20025;-83
2022/06/30 08:55:18;;;;;;;11.40;10.20;;;;;;;;;;5031453;28;20025;-80
2022/06/30 08:57:47;;;;;;;11.82;10.63;;;;;;;;;;5031060;28;20072;-76
2022/06/30 09:00:17;;;;;;;11.85;10.63;;;;;;;;;;5029152;28;20046;-76
2022/06/30 09:02:43;;;;;;;12.52;11.38;;;;;;;;;;5031444;28;20475;-76
2022/06/30 09:05:09;;;;;;;12.60;11.30;;;;;;;;;;5027039;28;20051;-76
2022/06/30 09:07:35;;;;;;;12.35;11.25;;;;;;;;;;5014991;28;20077;-79
2022/06/30 09:10:05;;;;;;;13.32;11.32;;;;;;;;;;5036420;28;20048;-78
2022/06/30 09:12:32;;;;;;;12.30;11.10;;;;;;;;;;5032872;28;20073;-78
2022/06/30 09:14:59;;;;;;;12.98;11.60;;;;;;;;;;5028656;28;20078;-76
2022/06/30 09:17:26;;;;;;;11.98;10.80;;;;;;;;;;5029049;28;20398;-77
2022/06/30 12:40:57;;;;;;;;;;;;;;;;;;5114678;27;20658;-78
2022/06/30 12:43:23;;;;;;;;;;;;;;;;;;5094254;28;19987;-76
2022/06/30 12:46:04;;;;;;;14.05;12.55;;;;;;;;;;5084664;28;19993;-75
2022/06/30 12:48:39;;;;;;;15.00;12.05;;;;;;;;;;5066728;28;20025;-75
2022/06/30 12:51:05;;;;;;;14.90;12.98;;;;;;;;;;5074663;28;20037;-75
2022/06/30 12:53:31;;;;;;;13.52;12.13;;;;;;;;;;5059050;28;20021;-74
2022/06/30 12:56:02;;;;;;;14.35;12.93;;;;;;;;;;5068563;28;20038;-75
2022/06/30 12:58:42;;;;;;;12.68;11.38;;;;;;;;;;5046205;28;20041;-78
2022/06/30 13:01:08;;;;;;;14.68;12.15;;;;;;;;;;5068328;28;20048;-75
2022/06/30 13:03:46;;;;;;;13.75;12.45;;;;;;;;;;5075224;28;20032;-74
2022/06/30 13:06:12;;;;;;;16.88;13.02;;;;;;;;;;5074769;28;20025;-75
2022/06/30 13:08:38;;;;;;;14.95;12.88;;;;;;;;;;5075146;28;20057;-75
2022/06/30 13:11:08;;;;;;;12.63;11.15;;;;;;;;;;5074073;28;20041;-75
2022/06/30 13:13:34;;;;;;;12.02;9.48;;;;;;;;;;5073069;28;20033;-75
2022/06/30 13:16:00;;;;;;;10.15;8.88;;;;;;;;;;5073990;28;20089;-75
2022/06/30 13:18:26;;;;;;;18.27;11.30;;;;;;;;;;5075063;28;20033;-74
2022/06/30 13:20:52;;;;;;;12.93;8.43;;;;;;;;;;5075021;28;20057;-74
2022/06/30 13:23:18;;;;;;;10.93;9.75;;;;;;;;;;5074504;28;20027;-75
2022/06/30 13:25:44;;;;;;;10.73;8.82;;;;;;;;;;5074903;28;20025;-75
2022/06/30 13:28:10;;;;;;;11.68;9.23;;;;;;;;;;5073862;28;20056;-75
2022/06/30 13:30:36;;;;;;;10.13;7.78;;;;;;;;;;5074004;28;20032;-75
2022/06/30 13:33:02;;;;;;;9.23;8.00;;;;;;;;;;5074445;28;20030;-75
2022/06/30 13:35:28;;;;;;;12.98;10.15;;;;;;;;;;5074633;28;20088;-75
2022/06/30 13:37:54;;;;;;;11.25;8.93;;;;;;;;;;5073896;28;20044;-75
2022/06/30 13:40:20;;;;;;;12.00;9.95;;;;;;;;;;5072790;28;20064;-75
2022/06/30 13:42:46;;;;;;;11.27;8.45;;;;;;;;;;5073428;28;20044;-75
2022/06/30 13:45:12;;;;;;;11.32;7.90;;;;;;;;;;5073862;28;20037;-75
2022/06/30 13:47:38;;;;;;;12.80;8.90;;;;;;;;;;5074556;28;20026;-75
2022/06/30 13:50:05;;;;;;;10.57;8.00;;;;;;;;;;5073926;28;20096;-75
2022/06/30 13:52:34;;;;;;;11.70;10.30;;;;;;;;;;5060119;28;20040;-75
2022/06/30 13:55:03;;;;;;;11.43;9.10;;;;;;;;;;5060816;28;20029;-75
2022/06/30 13:57:29;;;;;;;9.32;7.38;;;;;;;;;;5060539;28;20029;-75
2022/06/30 13:59:55;;;;;;;10.13;9.15;;;;;;;;;;5060784;28;20101;-75
2022/06/30 14:02:21;;;;;;;7.70;6.90;;;;;;;;;;5060951;28;20099;-75
2022/06/30 14:04:47;;;;;;;7.75;6.85;;;;;;;;;;5060686;28;20032;-75
2022/06/30 14:07:13;;;;;;;9.63;7.65;;;;;;;;;;5060656;28;20037;-75
2022/06/30 14:09:39;;;;;;;10.07;8.70;;;;;;;;;;5060760;28;20034;-75
2022/06/30 14:12:05;;;;;;;9.98;8.63;;;;;;;;;;5060673;28;20064;-76
2022/06/30 14:14:31;;;;;;;11.27;8.80;;;;;;;;;;5059692;28;20036;-74
2022/06/30 14:16:57;;;;;;;10.48;9.43;;;;;;;;;;5060476;28;20049;-75
2022/06/30 14:19:24;;;;;;;10.68;9.30;;;;;;;;;;5060414;28;20057;-75
2022/06/30 14:21:50;;;;;;;11.55;10.30;;;;;;;;;;5060708;28;20037;-74
2022/06/30 14:24:16;;;;;;;10.38;9.10;;;;;;;;;;5060449;28;20029;-74
2022/06/30 14:26:42;;;;;;;11.90;10.35;;;;;;;;;;5060303;28;20085;-77
2022/06/30 14:29:10;;;;;;;10.30;9.10;;;;;;;;;;5056743;28;20035;-75
2022/06/30 14:31:36;;;;;;;8.75;7.75;;;;;;;;;;5060147;28;20030;-74
2022/06/30 14:34:02;;;;;;;8.73;6.93;;;;;;;;;;5059877;28;20038;-75
2022/06/30 14:36:28;;;;;;;9.40;7.68;;;;;;;;;;5060005;28;20028;-75
2022/06/30 14:38:55;;;;;;;8.20;6.82;;;;;;;;;;5059094;28;20037;-75
2022/06/30 14:44:05;;;;;;;6.75;5.93;;;;;;;;;;5059498;28;20025;-78
2022/06/30 14:46:31;;;;;;;7.22;5.82;;;;;;;;;;5050670;28;20057;-75
2022/06/30 14:48:57;;;;;;;6.03;5.22;;;;;;;;;;5040107;28;20041;-75
2022/06/30 14:51:23;;;;;;;7.18;4.88;;;;;;;;;;5040055;28;20025;-75
2022/06/30 14:53:49;;;;;;;6.45;5.13;;;;;;;;;;5040091;28;20068;-75
2022/06/30 14:56:15;;;;;;;5.63;5.03;;;;;;;;;;5039962;28;20058;-74
2022/06/30 14:58:41;;;;;;;8.23;5.68;;;;;;;;;;5059221;28;20045;-75
2022/06/30 15:01:07;;;;;;;7.50;5.35;;;;;;;;;;5059026;28;20041;-74
2022/06/30 15:03:37;;;;;;;6.68;5.00;;;;;;;;;;5058671;28;20033;-74
2022/06/30 15:06:06;;;;;;;6.10;5.13;;;;;;;;;;5057106;28;20025;-75
2022/06/30 15:08:33;;;;;;;6.45;5.05;;;;;;;;;;5059650;28;20024;-75
2022/06/30 15:10:59;;;;;;;7.47;5.65;;;;;;;;;;5059570;28;20057;-74
2022/06/30 15:13:26;;;;;;;7.85;5.30;;;;;;;;;;5058429;28;20053;-75
2022/06/30 15:15:52;;;;;;;8.30;6.30;;;;;;;;;;5059305;28;20098;-75
2022/06/30 15:18:18;;;;;;;7.20;5.40;;;;;;;;;;5057709;28;20048;-74
2022/06/30 15:24:04;;;;;;;11.10;5.60;;;;;;;;;;5055892;28;20060;-74
2022/06/30 15:26:14;;;;;;;7.30;4.95;;;;;;;;;;5048771;28;19921;-75
2022/06/30 15:28:40;;;;;;;7.38;5.40;;;;;;;;;;5052973;28;20037;-75
2022/06/30 15:31:06;;;;;;;6.90;5.00;;;;;;;;;;5049798;28;20129;-75
2022/06/30 15:33:33;;;;;;;8.73;5.63;;;;;;;;;;5031167;28;20045;-75
2022/06/30 15:35:59;;;;;;;6.90;5.60;;;;;;;;;;5050608;28;20025;-75
2022/06/30 15:38:25;;;;;;;9.43;4.53;;;;;;;;;;5057504;28;20025;-75
2022/06/30 15:40:51;;;;;;;7.25;4.50;;;;;;;;;;5055688;28;20108;-75
2022/06/30 15:43:18;;;;;;;6.05;3.72;;;;;;;;;;5055658;28;20072;-76
2022/06/30 15:45:45;;;;;;;5.82;3.90;;;;;;;;;;5048852;28;20026;-80
2022/06/30 15:48:11;;;;;;;7.50;4.35;;;;;;;;;;5057117;28;20040;-75
2022/06/30 15:50:37;;;;;;;6.50;3.80;;;;;;;;;;5058088;28;20048;-75
2022/06/30 15:53:03;;;;;;;10.77;4.18;;;;;;;;;;5058671;28;20032;-75
2022/06/30 15:55:31;;;;;;;5.15;3.75;;;;;;;;;;5057359;28;20090;-75
2022/06/30 15:57:57;;;;;;;5.43;3.90;;;;;;;;;;5058443;28;20033;-75
2022/06/30 16:00:23;;;;;;;6.53;4.18;;;;;;;;;;5058564;28;20098;-75
2022/06/30 16:02:49;;;;;;;9.20;4.38;;;;;;;;;;5058475;28;20037;-75
2022/06/30 16:05:15;;;;;;;5.00;4.15;;;;;;;;;;5058061;28;20089;-75
2022/06/30 16:07:42;;;;;;;6.25;4.40;;;;;;;;;;5053571;28;20033;-75
2022/06/30 16:10:08;;;;;;;6.30;4.68;;;;;;;;;;5057434;28;20026;-74
2022/06/30 16:12:37;;;;;;;7.15;4.90;;;;;;;;;;5058561;28;20036;-74
2022/06/30 16:15:03;;;;;;;6.32;4.55;;;;;;;;;;5058158;28;20038;-74
2022/06/30 16:17:29;;;;;;;9.52;4.80;;;;;;;;;;5058447;28;20087;-74
2022/06/30 16:19:56;;;;;;;9.52;4.63;;;;;;;;;;5056153;28;20049;-74
2022/06/30 16:22:22;;;;;;;7.25;4.32;;;;;;;;;;5052163;28;20025;-76
2022/06/30 16:24:48;;;;;;;6.45;4.00;;;;;;;;;;5047229;28;20047;-76
2022/06/30 16:27:14;;;;;;;6.50;4.65;;;;;;;;;;5054880;28;20057;-74
2022/06/30 16:29:42;;;;;;;10.15;5.25;;;;;;;;;;5056263;28;20041;-74
2022/06/30 16:32:08;;;;;;;7.85;5.05;;;;;;;;;;5052702;28;20037;-75
2022/06/30 16:34:34;;;;;;;8.65;4.95;;;;;;;;;;5052426;28;20049;-75
2022/06/30 16:37:01;;;;;;;19.58;7.05;;;;;;;;;;5055676;28;20028;-75
2022/06/30 16:39:27;;;;;;;6.78;5.28;;;;;;;;;;5056003;28;20038;-76
2022/06/30 16:42:05;;;;;;;9.52;5.90;;;;;;;;;;5056464;28;20045;-77
2022/06/30 16:44:32;;;;;;;8.10;4.70;;;;;;;;;;5041985;28;20029;-75
2022/06/30 16:46:58;;;;;;;7.03;5.07;;;;;;;;;;5057303;28;20025;-75
2022/06/30 16:49:24;;;;;;;7.15;4.70;;;;;;;;;;5057217;28;20032;-75
2022/06/30 16:51:51;;;;;;;10.27;5.05;;;;;;;;;;5057939;28;20060;-75
2022/06/30 16:54:17;;;;;;;6.85;4.00;;;;;;;;;;5057986;28;20097;-76
2022/06/30 16:56:44;;;;;;;7.93;4.88;;;;;;;;;;5055094;28;20045;-76
2022/06/30 16:59:10;;;;;;;9.38;4.70;;;;;;;;;;5043568;28;20073;-76
2022/06/30 17:01:36;;;;;;;6.75;4.43;;;;;;;;;;5055239;28;20503;-74
2022/06/30 17:04:02;;;;;;;22.75;8.50;;;;;;;;;;5053178;28;20021;-77
2022/06/30 17:06:28;;;;;;;6.30;4.60;;;;;;;;;;5054886;28;20037;-75
2022/06/30 17:08:54;;;;;;;7.72;4.03;;;;;;;;;;5057268;28;20025;-74
2022/06/30 17:11:26;;;;;;;16.58;8.35;;;;;;;;;;5052318;28;20073;-74
2022/06/30 17:13:53;;;;;;;7.15;5.00;;;;;;;;;;5048177;28;20049;-74
2022/06/30 17:16:19;;;;;;;6.57;5.10;;;;;;;;;;5054793;28;20235;-75
2022/06/30 17:18:46;;;;;;;11.45;6.47;;;;;;;;;;5052449;28;20071;-76
2022/06/30 17:21:12;;;;;;;6.97;5.30;;;;;;;;;;5050408;28;20026;-75
2022/06/30 17:23:39;;;;;;;6.40;5.00;;;;;;;;;;5055610;28;20118;-75
2022/06/30 17:26:06;;;;;;;8.52;5.78;;;;;;;;;;5053106;28;20029;-74
2022/06/30 17:28:33;;;;;;;7.22;5.97;;;;;;;;;;5061194;28;20029;-73
2022/06/30 17:31:00;;;;;;;10.85;5.88;;;;;;;;;;5056617;28;20480;-75
2022/06/30 17:33:26;;;;;;;7.63;5.78;;;;;;;;;;5040607;28;20030;-74
2022/06/30 17:35:52;;;;;;;9.25;6.03;;;;;;;;;;5053961;28;20053;-75
2022/06/30 17:38:18;;;;;;;10.80;5.65;;;;;;;;;;5061170;28;20032;-74
2022/06/30 17:40:45;;;;;;;10.45;5.72;;;;;;;;;;5057883;28;20080;-75
2022/06/30 17:43:11;;;;;;;8.90;5.20;;;;;;;;;;5058261;28;20106;-75
2022/06/30 17:45:37;;;;;;;7.57;6.88;;;;;;;;;;5059272;28;21573;-75
2022/06/30 17:48:05;;;;;;;8.43;6.80;;;;;;;;;;5040515;28;20041;-75
2022/06/30 17:50:31;;;;;;;8.60;5.75;;;;;;;;;;5053419;28;20050;-74
2022/06/30 17:52:57;;;;;;;9.70;6.95;;;;;;;;;;5060739;28;20048;-76
2022/06/30 17:55:23;;;;;;;12.55;8.95;;;;;;;;;;5060665;28;20049;-75
2022/06/30 17:57:50;;;;;;;9.18;8.05;;;;;;;;;;5060574;28;20053;-75
2022/06/30 18:00:16;;;;;;;12.07;9.30;;;;;;;;;;5053247;28;20033;-74
2022/06/30 18:02:42;;;;;;;9.75;8.25;;;;;;;;;;5054660;28;20029;-75
2022/06/30 18:05:08;;;;;;;13.38;8.90;;;;;;;;;;5057201;28;20025;-75
2022/06/30 18:13:24;;;;;;;10.82;9.73;;;;;;;;;;5021940;28;20098;-75
2022/06/30 18:15:50;;;;;;;10.85;9.25;;;;;;;;;;5018981;28;20056;-75
2022/06/30 18:18:16;;;;;;;17.05;9.00;;;;;;;;;;5002670;28;20046;-74
2022/06/30 18:20:42;;;;;;;9.18;8.20;;;;;;;;;;5017230;28;20027;-75